GRZLY80 EHTE-EHGR
Flight info
| Callsign | GRZLY80 |
|---|---|
| Flight time | N/A |
| Altitude | 1000 |
| Route | DCT EHR3 STAY1/0115 EHR DCT 5200N00529E DCT |
| Aircraft | H47/M-DFILOTUVY/SC |
Departure
| Time | 2026-04-29 17:22 |
|---|---|
| Airport | Teuge Airport (EHTE) |
Arrival
| Time | N/A |
|---|---|
| Airport | Gilze Rijen Air Base (EHGR) |
| Time | Latitude | Longitude | Altitude | Speed | Heading |
|---|---|---|---|---|---|
| 2026-04-29 17:06 | 52.24174 | 6.05249 | 19 ft | 0 kts | 266° |
| 2026-04-29 17:17 | 52.24174 | 6.05231 | 19 ft | 1 kts | 267° |
| 2026-04-29 17:18 | 52.24180 | 6.05209 | 17 ft | 0 kts | 356° |
| 2026-04-29 17:18 | 52.24196 | 6.05199 | 18 ft | 6 kts | 296° |
| 2026-04-29 17:18 | 52.24196 | 6.05117 | 17 ft | 8 kts | 265° |
| 2026-04-29 17:19 | 52.24190 | 6.05023 | 18 ft | 9 kts | 265° |
| 2026-04-29 17:19 | 52.24186 | 6.04924 | 20 ft | 9 kts | 266° |
| 2026-04-29 17:19 | 52.24183 | 6.04854 | 18 ft | 3 kts | 263° |
| 2026-04-29 17:19 | 52.24182 | 6.04847 | 17 ft | 0 kts | 263° |
| 2026-04-29 17:20 | 52.24183 | 6.04842 | 23 ft | 5 kts | 231° |
| 2026-04-29 17:20 | 52.24160 | 6.04835 | 26 ft | 5 kts | 137° |
| 2026-04-29 17:20 | 52.24153 | 6.04841 | 27 ft | 1 kts | 87° |
| 2026-04-29 17:21 | 52.24153 | 6.04840 | 33 ft | 1 kts | 88° |
| 2026-04-29 17:21 | 52.24154 | 6.04838 | 43 ft | 1 kts | 89° |
| 2026-04-29 17:21 | 52.24154 | 6.04841 | 43 ft | 0 kts | 89° |
| 2026-04-29 17:21 | 52.24153 | 6.04841 | 54 ft | 1 kts | 89° |
| 2026-04-29 17:22 | 52.24185 | 6.04995 | 86 ft | 41 kts | 73° |
| 2026-04-29 17:22 | 52.24327 | 6.05786 | 151 ft | 94 kts | 81° |
| 2026-04-29 17:22 | 52.24399 | 6.06845 | 426 ft | 92 kts | 79° |
| 2026-04-29 17:22 | 52.24720 | 6.07756 | 670 ft | 101 kts | 49° |
| 2026-04-29 17:23 | 52.25340 | 6.08383 | 875 ft | 109 kts | 36° |
| 2026-04-29 17:23 | 52.26094 | 6.08752 | 876 ft | 121 kts | 12° |
| 2026-04-29 17:23 | 52.26908 | 6.08374 | 956 ft | 119 kts | 341° |
| 2026-04-29 17:23 | 52.27618 | 6.07708 | 945 ft | 118 kts | 336° |
| 2026-04-29 17:24 | 52.28329 | 6.07072 | 962 ft | 115 kts | 336° |
| 2026-04-29 17:24 | 52.29080 | 6.06685 | 924 ft | 116 kts | 356° |
| 2026-04-29 17:24 | 52.29889 | 6.06405 | 1021 ft | 125 kts | 342° |
| 2026-04-29 17:24 | 52.30693 | 6.05773 | 958 ft | 130 kts | 336° |
| 2026-04-29 17:25 | 52.31503 | 6.05137 | 985 ft | 128 kts | 337° |
| 2026-04-29 17:25 | 52.32300 | 6.04558 | 1048 ft | 128 kts | 337° |
| 2026-04-29 17:25 | 52.33145 | 6.03995 | 995 ft | 131 kts | 339° |
| 2026-04-29 17:25 | 52.33969 | 6.03380 | 1010 ft | 130 kts | 337° |
| 2026-04-29 17:26 | 52.34813 | 6.02879 | 991 ft | 129 kts | 344° |
| 2026-04-29 17:26 | 52.35682 | 6.02595 | 938 ft | 126 kts | 349° |
| 2026-04-29 17:26 | 52.36552 | 6.02318 | 932 ft | 129 kts | 349° |
| 2026-04-29 17:26 | 52.37436 | 6.02083 | 847 ft | 126 kts | 352° |
| 2026-04-29 17:27 | 52.38249 | 6.01871 | 727 ft | 112 kts | 346° |
| 2026-04-29 17:27 | 52.38822 | 6.01176 | 736 ft | 106 kts | 280° |
| 2026-04-29 17:27 | 52.38812 | 6.00044 | 679 ft | 90 kts | 266° |
| 2026-04-29 17:27 | 52.39180 | 5.99381 | 615 ft | 78 kts | 1° |
| 2026-04-29 17:28 | 52.39484 | 5.99348 | 674 ft | 57 kts | 41° |
| 2026-04-29 17:28 | 52.39722 | 5.99798 | 614 ft | 52 kts | 65° |
| 2026-04-29 17:28 | 52.39878 | 6.00295 | 430 ft | 45 kts | 63° |
| 2026-04-29 17:28 | 52.40017 | 6.00710 | 244 ft | 33 kts | 58° |
| 2026-04-29 17:29 | 52.40065 | 6.00849 | 55 ft | 2 kts | 62° |
| 2026-04-29 17:29 | 52.40046 | 6.00816 | 90 ft | 9 kts | 55° |
| 2026-04-29 17:29 | 52.40057 | 6.00973 | 224 ft | 48 kts | 60° |
| 2026-04-29 17:29 | 52.40516 | 6.01362 | 360 ft | 107 kts | 6° |
| 2026-04-29 17:30 | 52.40922 | 6.00231 | 338 ft | 138 kts | 270° |
| 2026-04-29 17:30 | 52.40901 | 5.98740 | 408 ft | 120 kts | 275° |
| 2026-04-29 17:30 | 52.40920 | 5.97478 | 531 ft | 104 kts | 276° |
| 2026-04-29 17:30 | 52.40956 | 5.96381 | 501 ft | 92 kts | 276° |
| 2026-04-29 17:31 | 52.40947 | 5.95443 | 329 ft | 57 kts | 266° |
| 2026-04-29 17:31 | 52.40965 | 5.95011 | 223 ft | 32 kts | 277° |
| 2026-04-29 17:31 | 52.41003 | 5.94604 | 251 ft | 41 kts | 278° |
| 2026-04-29 17:31 | 52.41028 | 5.94184 | 222 ft | 30 kts | 279° |
| 2026-04-29 17:32 | 52.41046 | 5.93895 | 180 ft | 38 kts | 275° |
| 2026-04-29 17:32 | 52.40942 | 5.93118 | 398 ft | 99 kts | 249° |
| 2026-04-29 17:32 | 52.40548 | 5.91959 | 616 ft | 130 kts | 230° |
| 2026-04-29 17:32 | 52.39891 | 5.91028 | 698 ft | 123 kts | 192° |
| 2026-04-29 17:33 | 52.39076 | 5.91116 | 678 ft | 118 kts | 148° |
| 2026-04-29 17:33 | 52.38455 | 5.91856 | 745 ft | 103 kts | 135° |
| 2026-04-29 17:33 | 52.37930 | 5.92595 | 734 ft | 97 kts | 127° |
| 2026-04-29 17:33 | 52.37665 | 5.93545 | 687 ft | 94 kts | 91° |
| 2026-04-29 17:34 | 52.37957 | 5.94476 | 675 ft | 93 kts | 62° |
| 2026-04-29 17:34 | 52.38265 | 5.95333 | 741 ft | 84 kts | 65° |
| 2026-04-29 17:34 | 52.38522 | 5.96186 | 758 ft | 83 kts | 68° |
| 2026-04-29 17:34 | 52.38785 | 5.97033 | 759 ft | 86 kts | 67° |
| 2026-04-29 17:35 | 52.39291 | 5.98439 | 682 ft | 82 kts | 65° |
| 2026-04-29 17:35 | 52.39631 | 5.99394 | 570 ft | 68 kts | 68° |
| 2026-04-29 17:35 | 52.39823 | 6.00018 | 476 ft | 57 kts | 66° |
| 2026-04-29 17:36 | 52.39967 | 6.00528 | 349 ft | 40 kts | 66° |
| 2026-04-29 17:36 | 52.40032 | 6.00791 | 82 ft | 7 kts | 66° |
| 2026-04-29 17:36 | 52.40032 | 6.00794 | 65 ft | 5 kts | 65° |
| 2026-04-29 17:37 | 52.40032 | 6.00809 | 88 ft | 18 kts | 66° |
| 2026-04-29 17:37 | 52.40190 | 6.01379 | 245 ft | 87 kts | 53° |
| 2026-04-29 17:38 | 52.40814 | 6.01258 | 411 ft | 115 kts | 312° |
| 2026-04-29 17:38 | 52.40946 | 5.99941 | 616 ft | 118 kts | 270° |
| 2026-04-29 17:38 | 52.41023 | 5.98624 | 480 ft | 114 kts | 269° |
| 2026-04-29 17:38 | 52.41072 | 5.97368 | 409 ft | 104 kts | 274° |
| 2026-04-29 17:39 | 52.41060 | 5.96281 | 359 ft | 87 kts | 271° |
| 2026-04-29 17:39 | 52.41040 | 5.95411 | 316 ft | 68 kts | 273° |
| 2026-04-29 17:39 | 52.41040 | 5.94721 | 266 ft | 54 kts | 266° |
| 2026-04-29 17:39 | 52.41039 | 5.94184 | 214 ft | 36 kts | 271° |
| 2026-04-29 17:40 | 52.41043 | 5.93902 | 216 ft | 39 kts | 256° |
| 2026-04-29 17:40 | 52.40793 | 5.93306 | 221 ft | 65 kts | 234° |
| 2026-04-29 17:40 | 52.40543 | 5.92673 | 281 ft | 89 kts | 239° |
| 2026-04-29 17:40 | 52.40144 | 5.91585 | 433 ft | 121 kts | 230° |
| 2026-04-29 17:41 | 52.39442 | 5.90960 | 618 ft | 113 kts | 180° |
| 2026-04-29 17:41 | 52.38761 | 5.91421 | 752 ft | 108 kts | 134° |
| 2026-04-29 17:41 | 52.38325 | 5.92335 | 792 ft | 96 kts | 119° |
| 2026-04-29 17:41 | 52.37974 | 5.93186 | 879 ft | 87 kts | 111° |
| 2026-04-29 17:42 | 52.38017 | 5.94137 | 795 ft | 89 kts | 68° |
| 2026-04-29 17:42 | 52.38289 | 5.95028 | 875 ft | 86 kts | 65° |
| 2026-04-29 17:42 | 52.38518 | 5.95918 | 827 ft | 84 kts | 61° |
| 2026-04-29 17:42 | 52.38723 | 5.96836 | 765 ft | 87 kts | 65° |
| 2026-04-29 17:43 | 52.39013 | 5.97717 | 708 ft | 86 kts | 62° |
| 2026-04-29 17:43 | 52.39295 | 5.98534 | 688 ft | 80 kts | 67° |
| 2026-04-29 17:43 | 52.39557 | 5.99309 | 602 ft | 70 kts | 66° |
| 2026-04-29 17:43 | 52.39763 | 5.99911 | 474 ft | 52 kts | 63° |
| 2026-04-29 17:44 | 52.39904 | 6.00365 | 360 ft | 36 kts | 64° |
| 2026-04-29 17:44 | 52.39985 | 6.00673 | 214 ft | 23 kts | 63° |
| 2026-04-29 17:44 | 52.40041 | 6.00839 | 82 ft | 6 kts | 63° |
| 2026-04-29 17:44 | 52.40045 | 6.00843 | 68 ft | 2 kts | 64° |
| 2026-04-29 17:45 | 52.40042 | 6.00848 | 203 ft | 16 kts | 63° |
| 2026-04-29 17:45 | 52.40229 | 6.01314 | 428 ft | 80 kts | 49° |
| 2026-04-29 17:45 | 52.40894 | 6.01048 | 451 ft | 125 kts | 321° |
| 2026-04-29 17:45 | 52.41093 | 5.99571 | 492 ft | 141 kts | 271° |
| 2026-04-29 17:46 | 52.41055 | 5.98038 | 532 ft | 126 kts | 271° |
| 2026-04-29 17:46 | 52.41035 | 5.96644 | 487 ft | 115 kts | 269° |
| 2026-04-29 17:46 | 52.41001 | 5.95448 | 486 ft | 97 kts | 267° |
| 2026-04-29 17:46 | 52.40957 | 5.94465 | 354 ft | 70 kts | 264° |
| 2026-04-29 17:47 | 52.40918 | 5.93934 | 192 ft | 25 kts | 262° |
| 2026-04-29 17:47 | 52.40862 | 5.93556 | 183 ft | 75 kts | 261° |
| 2026-04-29 17:47 | 52.40543 | 5.92559 | 374 ft | 116 kts | 239° |
| 2026-04-29 17:47 | 52.40054 | 5.91472 | 511 ft | 118 kts | 207° |
| 2026-04-29 17:48 | 52.39321 | 5.91164 | 443 ft | 102 kts | 156° |
| 2026-04-29 17:48 | 52.38712 | 5.91505 | 643 ft | 86 kts | 147° |
| 2026-04-29 17:48 | 52.38243 | 5.91982 | 797 ft | 83 kts | 123° |
| 2026-04-29 17:48 | 52.38212 | 5.92921 | 767 ft | 86 kts | 83° |
| 2026-04-29 17:49 | 52.38360 | 5.93820 | 852 ft | 79 kts | 73° |
| 2026-04-29 17:49 | 52.38553 | 5.94649 | 877 ft | 78 kts | 67° |
| 2026-04-29 17:49 | 52.38767 | 5.95503 | 877 ft | 84 kts | 68° |
| 2026-04-29 17:49 | 52.38987 | 5.96432 | 842 ft | 91 kts | 71° |
| 2026-04-29 17:50 | 52.39205 | 5.97408 | 747 ft | 90 kts | 71° |
| 2026-04-29 17:50 | 52.39442 | 5.98328 | 683 ft | 84 kts | 72° |
| 2026-04-29 17:50 | 52.39663 | 5.99180 | 697 ft | 77 kts | 72° |
| 2026-04-29 17:50 | 52.39860 | 5.99921 | 632 ft | 64 kts | 70° |
| 2026-04-29 17:51 | 52.40002 | 6.00455 | 418 ft | 34 kts | 65° |
| 2026-04-29 17:51 | 52.40067 | 6.00715 | 120 ft | 20 kts | 71° |
| 2026-04-29 17:51 | 52.40096 | 6.00771 | 59 ft | 2 kts | 71° |
| 2026-04-29 17:51 | 52.40121 | 6.00921 | 94 ft | 28 kts | 75° |
| 2026-04-29 17:52 | 52.40176 | 6.01340 | 275 ft | 49 kts | 79° |
| 2026-04-29 17:52 | 52.40346 | 6.01664 | 357 ft | 74 kts | 33° |
| 2026-04-29 17:52 | 52.41119 | 6.01108 | 357 ft | 113 kts | 294° |
| 2026-04-29 17:52 | 52.41072 | 5.99756 | 340 ft | 124 kts | 265° |
| 2026-04-29 17:53 | 52.40975 | 5.98372 | 469 ft | 119 kts | 268° |
| 2026-04-29 17:53 | 52.40903 | 5.97045 | 528 ft | 114 kts | 270° |
| 2026-04-29 17:53 | 52.40849 | 5.95801 | 536 ft | 106 kts | 269° |
| 2026-04-29 17:53 | 52.40771 | 5.94716 | 432 ft | 83 kts | 261° |
| 2026-04-29 17:54 | 52.40691 | 5.94107 | 238 ft | 34 kts | 260° |
| 2026-04-29 17:54 | 52.40661 | 5.93751 | 173 ft | 43 kts | 269° |
| 2026-04-29 17:54 | 52.40594 | 5.92871 | 239 ft | 112 kts | 259° |
| 2026-04-29 17:54 | 52.40186 | 5.91627 | 494 ft | 124 kts | 232° |
| 2026-04-29 17:55 | 52.39629 | 5.90674 | 680 ft | 114 kts | 192° |
| 2026-04-29 17:55 | 52.38903 | 5.90908 | 680 ft | 102 kts | 138° |
| 2026-04-29 17:55 | 52.38386 | 5.91523 | 1033 ft | 86 kts | 130° |
| 2026-04-29 17:55 | 52.38269 | 5.92488 | 926 ft | 98 kts | 76° |
| 2026-04-29 17:56 | 52.38479 | 5.93258 | 1006 ft | 89 kts | 70° |
| 2026-04-29 17:56 | 52.38698 | 5.94147 | 1032 ft | 81 kts | 72° |
| 2026-04-29 17:56 | 52.38892 | 5.94980 | 1053 ft | 76 kts | 74° |
| 2026-04-29 17:56 | 52.39056 | 5.95806 | 1057 ft | 77 kts | 76° |
| 2026-04-29 17:57 | 52.39230 | 5.96686 | 965 ft | 84 kts | 74° |
| 2026-04-29 17:57 | 52.39439 | 5.97553 | 859 ft | 80 kts | 71° |
| 2026-04-29 17:57 | 52.39643 | 5.98365 | 854 ft | 75 kts | 72° |
| 2026-04-29 17:57 | 52.39759 | 5.98875 | 752 ft | 67 kts | 73° |
| 2026-04-29 17:58 | 52.39905 | 5.99758 | 551 ft | 55 kts | 72° |
| 2026-04-29 17:58 | 52.39974 | 6.00270 | 326 ft | 37 kts | 68° |
| 2026-04-29 17:58 | 52.40030 | 6.00608 | 208 ft | 23 kts | 77° |
| 2026-04-29 17:58 | 52.40053 | 6.00747 | 57 ft | 3 kts | 76° |
| 2026-04-29 17:59 | 52.40042 | 6.00730 | 83 ft | 4 kts | 70° |
| 2026-04-29 17:59 | 52.40056 | 6.00947 | 269 ft | 46 kts | 68° |
| 2026-04-29 17:59 | 52.40346 | 6.01426 | 618 ft | 92 kts | 22° |
| 2026-04-29 17:59 | 52.40933 | 6.00618 | 469 ft | 129 kts | 296° |
| 2026-04-29 18:00 | 52.40904 | 5.99104 | 477 ft | 135 kts | 263° |
| 2026-04-29 18:00 | 52.40768 | 5.97665 | 462 ft | 121 kts | 265° |
| 2026-04-29 18:00 | 52.40645 | 5.96402 | 509 ft | 102 kts | 263° |
| 2026-04-29 18:00 | 52.40555 | 5.95435 | 437 ft | 74 kts | 265° |
| 2026-04-29 18:01 | 52.40495 | 5.94795 | 348 ft | 38 kts | 258° |
| 2026-04-29 18:01 | 52.40459 | 5.94482 | 223 ft | 16 kts | 264° |
| 2026-04-29 18:01 | 52.40457 | 5.94296 | 270 ft | 24 kts | 264° |
| 2026-04-29 18:01 | 52.40446 | 5.93768 | 385 ft | 66 kts | 267° |
| 2026-04-29 18:02 | 52.40444 | 5.92935 | 643 ft | 78 kts | 269° |
| 2026-04-29 18:02 | 52.40363 | 5.91939 | 670 ft | 98 kts | 246° |
| 2026-04-29 18:02 | 52.39934 | 5.91065 | 680 ft | 105 kts | 195° |
| 2026-04-29 18:02 | 52.39250 | 5.90975 | 669 ft | 94 kts | 160° |
| 2026-04-29 18:03 | 52.38673 | 5.91489 | 633 ft | 96 kts | 141° |
| 2026-04-29 18:03 | 52.38181 | 5.92207 | 604 ft | 91 kts | 120° |
| 2026-04-29 18:03 | 52.38258 | 5.93170 | 590 ft | 94 kts | 71° |
| 2026-04-29 18:03 | 52.38566 | 5.94121 | 554 ft | 93 kts | 69° |
| 2026-04-29 18:04 | 52.38826 | 5.95081 | 696 ft | 93 kts | 70° |
| 2026-04-29 18:04 | 52.39096 | 5.95983 | 762 ft | 80 kts | 69° |
| 2026-04-29 18:04 | 52.39300 | 5.96809 | 736 ft | 79 kts | 76° |
| 2026-04-29 18:04 | 52.39469 | 5.97659 | 727 ft | 78 kts | 75° |
| 2026-04-29 18:05 | 52.39609 | 5.98489 | 653 ft | 76 kts | 75° |
| 2026-04-29 18:05 | 52.39789 | 5.99280 | 596 ft | 72 kts | 68° |
| 2026-04-29 18:05 | 52.39931 | 6.00006 | 420 ft | 58 kts | 69° |
| 2026-04-29 18:05 | 52.40001 | 6.00546 | 318 ft | 40 kts | 69° |
| 2026-04-29 18:06 | 52.40034 | 6.00781 | 80 ft | 2 kts | 76° |
| 2026-04-29 18:06 | 52.40035 | 6.00787 | 61 ft | 4 kts | 76° |
| 2026-04-29 18:06 | 52.40052 | 6.00957 | 213 ft | 26 kts | 74° |
| 2026-04-29 18:06 | 52.40218 | 6.01307 | 428 ft | 64 kts | 40° |
| 2026-04-29 18:07 | 52.40806 | 6.01020 | 412 ft | 107 kts | 334° |
| 2026-04-29 18:07 | 52.41036 | 5.99830 | 390 ft | 121 kts | 262° |
| 2026-04-29 18:07 | 52.40910 | 5.98466 | 350 ft | 119 kts | 258° |
| 2026-04-29 18:07 | 52.40780 | 5.97256 | 459 ft | 101 kts | 253° |
| 2026-04-29 18:08 | 52.40738 | 5.96180 | 445 ft | 92 kts | 289° |
| 2026-04-29 18:08 | 52.41259 | 5.95577 | 500 ft | 93 kts | 327° |
| 2026-04-29 18:08 | 52.41424 | 5.94627 | 478 ft | 95 kts | 227° |
| 2026-04-29 18:08 | 52.40969 | 5.94440 | 465 ft | 63 kts | 147° |
| 2026-04-29 18:09 | 52.40657 | 5.94726 | 339 ft | 41 kts | 144° |
| 2026-04-29 18:09 | 52.40456 | 5.94878 | 272 ft | 20 kts | 150° |
| 2026-04-29 18:09 | 52.40336 | 5.94978 | 269 ft | 27 kts | 149° |
| 2026-04-29 18:09 | 52.40092 | 5.95288 | 390 ft | 62 kts | 129° |
| 2026-04-29 18:10 | 52.40081 | 5.96088 | 398 ft | 79 kts | 82° |
| 2026-04-29 18:10 | 52.40262 | 5.96960 | 555 ft | 81 kts | 77° |
| 2026-04-29 18:10 | 52.40308 | 5.97849 | 588 ft | 79 kts | 98° |
| 2026-04-29 18:10 | 52.40243 | 5.98660 | 469 ft | 69 kts | 94° |
| 2026-04-29 18:11 | 52.40161 | 5.99369 | 417 ft | 58 kts | 99° |
| 2026-04-29 18:11 | 52.40073 | 5.99975 | 289 ft | 50 kts | 95° |
| 2026-04-29 18:11 | 52.40061 | 6.00474 | 288 ft | 36 kts | 92° |
| 2026-04-29 18:11 | 52.40085 | 6.00760 | 173 ft | 16 kts | 84° |
| 2026-04-29 18:12 | 52.40086 | 6.00812 | 54 ft | 5 kts | 77° |
| 2026-04-29 18:12 | 52.40068 | 6.00800 | 100 ft | 4 kts | 68° |
| 2026-04-29 18:12 | 52.40116 | 6.01027 | 282 ft | 35 kts | 58° |
| 2026-04-29 18:13 | 52.40425 | 6.01094 | 360 ft | 66 kts | 356° |
| 2026-04-29 18:13 | 52.40699 | 6.00405 | 571 ft | 79 kts | 288° |
| 2026-04-29 18:13 | 52.40700 | 5.99770 | 502 ft | 89 kts | 266° |
| 2026-04-29 18:13 | 52.40692 | 5.99496 | 485 ft | 90 kts | 265° |